sensor_id;sensor_type;location;lat;lon;timestamp;pressure;altitude;pressure_sealevel;temperature
76895;BMP280;65855;42.030;13.078;2024-01-30T00:02:21;95243.22;;;-1.77
76895;BMP280;65855;42.030;13.078;2024-01-30T00:04:46;95244.47;;;-2.11
76895;BMP280;65855;42.030;13.078;2024-01-30T00:07:12;95241.38;;;-2.13
76895;BMP280;65855;42.030;13.078;2024-01-30T00:09:38;95255.25;;;-2.04
76895;BMP280;65855;42.030;13.078;2024-01-30T00:12:05;95250.47;;;-2.43
76895;BMP280;65855;42.030;13.078;2024-01-30T00:14:31;95248.03;;;-1.62
76895;BMP280;65855;42.030;13.078;2024-01-30T00:16:57;95248.56;;;-1.66
76895;BMP280;65855;42.030;13.078;2024-01-30T00:19:22;95247.63;;;-1.95
76895;BMP280;65855;42.030;13.078;2024-01-30T00:21:47;95253.69;;;-2.35
76895;BMP280;65855;42.030;13.078;2024-01-30T00:24:13;95249.91;;;-2.16
76895;BMP280;65855;42.030;13.078;2024-01-30T00:26:39;95249.03;;;-2.00
76895;BMP280;65855;42.030;13.078;2024-01-30T00:29:04;95243.00;;;-1.68
76895;BMP280;65855;42.030;13.078;2024-01-30T00:31:29;95248.44;;;-1.50
76895;BMP280;65855;42.030;13.078;2024-01-30T00:33:55;95245.41;;;-1.82
76895;BMP280;65855;42.030;13.078;2024-01-30T00:36:21;95252.69;;;-1.89
76895;BMP280;65855;42.030;13.078;2024-01-30T00:38:47;95256.78;;;-2.03
76895;BMP280;65855;42.030;13.078;2024-01-30T00:41:12;95248.22;;;-1.63
76895;BMP280;65855;42.030;13.078;2024-01-30T00:43:38;95243.13;;;-1.03
76895;BMP280;65855;42.030;13.078;2024-01-30T00:46:03;95245.75;;;-1.41
76895;BMP280;65855;42.030;13.078;2024-01-30T00:48:29;95243.38;;;-1.79
76895;BMP280;65855;42.030;13.078;2024-01-30T00:50:54;95251.16;;;-1.68
76895;BMP280;65855;42.030;13.078;2024-01-30T00:53:20;95244.88;;;-1.70
76895;BMP280;65855;42.030;13.078;2024-01-30T00:55:46;95255.34;;;-1.90
76895;BMP280;65855;42.030;13.078;2024-01-30T00:58:11;95256.56;;;-1.64
76895;BMP280;65855;42.030;13.078;2024-01-30T01:00:37;95252.50;;;-1.57
76895;BMP280;65855;42.030;13.078;2024-01-30T01:03:02;95256.56;;;-1.64
76895;BMP280;65855;42.030;13.078;2024-01-30T01:05:28;95250.69;;;-1.85
76895;BMP280;65855;42.030;13.078;2024-01-30T01:07:53;95255.16;;;-1.89
76895;BMP280;65855;42.030;13.078;2024-01-30T01:10:19;95262.47;;;-2.25
76895;BMP280;65855;42.030;13.078;2024-01-30T01:12:45;95253.88;;;-2.52
76895;BMP280;65855;42.030;13.078;2024-01-30T01:15:11;95254.16;;;-2.40
76895;BMP280;65855;42.030;13.078;2024-01-30T01:17:37;95255.81;;;-2.24
76895;BMP280;65855;42.030;13.078;2024-01-30T01:20:04;95242.31;;;-2.14
76895;BMP280;65855;42.030;13.078;2024-01-30T01:22:33;95241.44;;;-2.21
76895;BMP280;65855;42.030;13.078;2024-01-30T01:25:00;95238.34;;;-1.93
76895;BMP280;65855;42.030;13.078;2024-01-30T01:27:25;95237.53;;;-1.42
76895;BMP280;65855;42.030;13.078;2024-01-30T01:29:51;95235.03;;;-2.08
76895;BMP280;65855;42.030;13.078;2024-01-30T01:32:16;95228.19;;;-1.98
76895;BMP280;65855;42.030;13.078;2024-01-30T01:34:42;95227.97;;;-1.89
76895;BMP280;65855;42.030;13.078;2024-01-30T01:37:08;95226.78;;;-1.92
76895;BMP280;65855;42.030;13.078;2024-01-30T01:39:33;95227.53;;;-2.22
76895;BMP280;65855;42.030;13.078;2024-01-30T01:41:59;95229.50;;;-2.10
76895;BMP280;65855;42.030;13.078;2024-01-30T01:44:24;95224.97;;;-1.76
76895;BMP280;65855;42.030;13.078;2024-01-30T01:46:51;95221.59;;;-1.53
76895;BMP280;65855;42.030;13.078;2024-01-30T01:49:17;95219.75;;;-1.37
76895;BMP280;65855;42.030;13.078;2024-01-30T01:51:44;95228.56;;;-1.57
76895;BMP280;65855;42.030;13.078;2024-01-30T01:54:11;95224.56;;;-1.88
76895;BMP280;65855;42.030;13.078;2024-01-30T01:56:36;95221.13;;;-2.31
76895;BMP280;65855;42.030;13.078;2024-01-30T01:59:07;95228.19;;;-2.28
76895;BMP280;65855;42.030;13.078;2024-01-30T02:01:34;95222.50;;;-2.06
76895;BMP280;65855;42.030;13.078;2024-01-30T02:04:00;95218.25;;;-2.12
76895;BMP280;65855;42.030;13.078;2024-01-30T02:06:26;95225.63;;;-3.03
76895;BMP280;65855;42.030;13.078;2024-01-30T02:08:52;95217.63;;;-3.05
76895;BMP280;65855;42.030;13.078;2024-01-30T02:11:18;95222.78;;;-2.69
76895;BMP280;65855;42.030;13.078;2024-01-30T02:13:45;95212.50;;;-2.42
76895;BMP280;65855;42.030;13.078;2024-01-30T02:16:10;95207.31;;;-2.17
76895;BMP280;65855;42.030;13.078;2024-01-30T02:18:35;95208.78;;;-2.39
76895;BMP280;65855;42.030;13.078;2024-01-30T02:21:07;95209.53;;;-2.38
76895;BMP280;65855;42.030;13.078;2024-01-30T02:23:33;95207.19;;;-2.32
76895;BMP280;65855;42.030;13.078;2024-01-30T02:25:58;95213.56;;;-2.07
76895;BMP280;65855;42.030;13.078;2024-01-30T02:28:24;95200.66;;;-2.17
76895;BMP280;65855;42.030;13.078;2024-01-30T02:30:49;95197.75;;;-2.20
76895;BMP280;65855;42.030;13.078;2024-01-30T02:33:15;95205.22;;;-2.74
76895;BMP280;65855;42.030;13.078;2024-01-30T02:35:40;95212.56;;;-2.58
76895;BMP280;65855;42.030;13.078;2024-01-30T02:38:06;95206.22;;;-2.53
76895;BMP280;65855;42.030;13.078;2024-01-30T02:40:31;95207.88;;;-2.45
76895;BMP280;65855;42.030;13.078;2024-01-30T02:43:02;95206.72;;;-2.65
76895;BMP280;65855;42.030;13.078;2024-01-30T02:45:27;95214.56;;;-2.54
76895;BMP280;65855;42.030;13.078;2024-01-30T02:47:53;95212.34;;;-2.87
76895;BMP280;65855;42.030;13.078;2024-01-30T02:50:19;95211.97;;;-2.60
76895;BMP280;65855;42.030;13.078;2024-01-30T02:52:44;95200.97;;;-2.12
76895;BMP280;65855;42.030;13.078;2024-01-30T02:55:10;95207.91;;;-2.16
76895;BMP280;65855;42.030;13.078;2024-01-30T02:57:35;95214.78;;;-2.03
76895;BMP280;65855;42.030;13.078;2024-01-30T03:00:01;95210.59;;;-1.73
76895;BMP280;65855;42.030;13.078;2024-01-30T03:02:28;95200.38;;;-2.22
76895;BMP280;65855;42.030;13.078;2024-01-30T03:04:54;95213.31;;;-2.58
76895;BMP280;65855;42.030;13.078;2024-01-30T03:07:19;95203.47;;;-3.19
76895;BMP280;65855;42.030;13.078;2024-01-30T03:09:45;95199.31;;;-3.18
76895;BMP280;65855;42.030;13.078;2024-01-30T03:12:11;95194.38;;;-2.57
76895;BMP280;65855;42.030;13.078;2024-01-30T03:14:36;95205.19;;;-2.66
76895;BMP280;65855;42.030;13.078;2024-01-30T03:17:02;95192.97;;;-2.22
76895;BMP280;65855;42.030;13.078;2024-01-30T03:19:27;95192.63;;;-2.49
76895;BMP280;65855;42.030;13.078;2024-01-30T03:21:53;95197.97;;;-2.75
76895;BMP280;65855;42.030;13.078;2024-01-30T03:24:18;95198.13;;;-2.39
76895;BMP280;65855;42.030;13.078;2024-01-30T03:26:44;95198.34;;;-1.89
76895;BMP280;65855;42.030;13.078;2024-01-30T03:29:09;95196.03;;;-0.67
76895;BMP280;65855;42.030;13.078;2024-01-30T03:31:35;95185.09;;;-0.30
76895;BMP280;65855;42.030;13.078;2024-01-30T03:34:01;95190.09;;;-1.59
76895;BMP280;65855;42.030;13.078;2024-01-30T03:36:26;95195.50;;;-2.75
76895;BMP280;65855;42.030;13.078;2024-01-30T03:38:52;95201.28;;;-2.53
76895;BMP280;65855;42.030;13.078;2024-01-30T03:41:18;95201.66;;;-2.34
76895;BMP280;65855;42.030;13.078;2024-01-30T03:43:43;95199.91;;;-2.17
76895;BMP280;65855;42.030;13.078;2024-01-30T03:46:09;95205.28;;;-2.14
76895;BMP280;65855;42.030;13.078;2024-01-30T03:48:34;95200.94;;;-2.42
76895;BMP280;65855;42.030;13.078;2024-01-30T03:50:59;95207.34;;;-2.71
76895;BMP280;65855;42.030;13.078;2024-01-30T03:53:25;95205.03;;;-3.57
76895;BMP280;65855;42.030;13.078;2024-01-30T03:55:51;95193.63;;;-3.42
76895;BMP280;65855;42.030;13.078;2024-01-30T03:58:16;95196.72;;;-3.40
76895;BMP280;65855;42.030;13.078;2024-01-30T04:00:42;95195.75;;;-3.86
76895;BMP280;65855;42.030;13.078;2024-01-30T04:03:07;95192.56;;;-3.79
76895;BMP280;65855;42.030;13.078;2024-01-30T04:05:33;95187.63;;;-3.71
76895;BMP280;65855;42.030;13.078;2024-01-30T04:07:59;95185.78;;;-3.38
76895;BMP280;65855;42.030;13.078;2024-01-30T04:10:24;95182.84;;;-3.49
76895;BMP280;65855;42.030;13.078;2024-01-30T04:12:50;95186.84;;;-3.48
76895;BMP280;65855;42.030;13.078;2024-01-30T04:15:17;95190.25;;;-3.34
76895;BMP280;65855;42.030;13.078;2024-01-30T04:17:43;95195.44;;;-3.13
76895;BMP280;65855;42.030;13.078;2024-01-30T04:20:13;95192.38;;;-3.23
76895;BMP280;65855;42.030;13.078;2024-01-30T04:22:39;95191.28;;;-3.12
76895;BMP280;65855;42.030;13.078;2024-01-30T04:25:04;95201.28;;;-3.22
76895;BMP280;65855;42.030;13.078;2024-01-30T04:27:30;95198.50;;;-3.11
76895;BMP280;65855;42.030;13.078;2024-01-30T04:29:55;95205.31;;;-3.13
76895;BMP280;65855;42.030;13.078;2024-01-30T04:32:21;95199.75;;;-3.07
76895;BMP280;65855;42.030;13.078;2024-01-30T04:34:46;95204.53;;;-3.29
76895;BMP280;65855;42.030;13.078;2024-01-30T04:37:11;95207.16;;;-3.23
76895;BMP280;65855;42.030;13.078;2024-01-30T04:39:37;95213.16;;;-3.80
76895;BMP280;65855;42.030;13.078;2024-01-30T04:42:02;95211.97;;;-3.53
76895;BMP280;65855;42.030;13.078;2024-01-30T04:44:28;95214.41;;;-3.60
76895;BMP280;65855;42.030;13.078;2024-01-30T04:46:53;95211.78;;;-3.20
76895;BMP280;65855;42.030;13.078;2024-01-30T04:49:19;95218.25;;;-3.11
76895;BMP280;65855;42.030;13.078;2024-01-30T04:51:44;95215.47;;;-3.16
76895;BMP280;65855;42.030;13.078;2024-01-30T04:54:10;95219.31;;;-3.06
76895;BMP280;65855;42.030;13.078;2024-01-30T04:56:35;95217.16;;;-3.16
76895;BMP280;65855;42.030;13.078;2024-01-30T04:59:02;95225.91;;;-2.90
76895;BMP280;65855;42.030;13.078;2024-01-30T05:01:27;95223.13;;;-2.80
76895;BMP280;65855;42.030;13.078;2024-01-30T05:03:53;95216.06;;;-2.45
76895;BMP280;65855;42.030;13.078;2024-01-30T05:06:28;95224.56;;;-2.47
76895;BMP280;65855;42.030;13.078;2024-01-30T05:08:53;95225.19;;;-3.22
76895;BMP280;65855;42.030;13.078;2024-01-30T05:11:19;95229.19;;;-3.13
76895;BMP280;65855;42.030;13.078;2024-01-30T05:13:44;95233.19;;;-3.05
76895;BMP280;65855;42.030;13.078;2024-01-30T05:16:10;95234.88;;;-2.97
76895;BMP280;65855;42.030;13.078;2024-01-30T05:18:35;95230.25;;;-3.16
76895;BMP280;65855;42.030;13.078;2024-01-30T05:21:02;95217.81;;;-3.38
76895;BMP280;65855;42.030;13.078;2024-01-30T05:23:28;95234.84;;;-2.82
76895;BMP280;65855;42.030;13.078;2024-01-30T05:25:54;95233.59;;;-1.50
76895;BMP280;65855;42.030;13.078;2024-01-30T05:28:19;95222.69;;;-0.69
76895;BMP280;65855;42.030;13.078;2024-01-30T05:30:45;95225.16;;;-1.78
76895;BMP280;65855;42.030;13.078;2024-01-30T05:33:10;95228.69;;;-2.02
76895;BMP280;65855;42.030;13.078;2024-01-30T05:35:37;95231.91;;;-2.02
76895;BMP280;65855;42.030;13.078;2024-01-30T05:38:03;95224.69;;;-1.81
76895;BMP280;65855;42.030;13.078;2024-01-30T05:40:30;95218.66;;;-1.79
76895;BMP280;65855;42.030;13.078;2024-01-30T05:42:55;95226.94;;;-2.32
76895;BMP280;65855;42.030;13.078;2024-01-30T05:45:21;95237.00;;;-2.79
76895;BMP280;65855;42.030;13.078;2024-01-30T05:47:48;95225.56;;;-2.72
76895;BMP280;65855;42.030;13.078;2024-01-30T05:50:14;95226.06;;;-2.92
76895;BMP280;65855;42.030;13.078;2024-01-30T05:52:39;95227.34;;;-3.43
76895;BMP280;65855;42.030;13.078;2024-01-30T05:55:04;95229.66;;;-3.10
76895;BMP280;65855;42.030;13.078;2024-01-30T05:57:31;95230.91;;;-2.53
76895;BMP280;65855;42.030;13.078;2024-01-30T05:59:56;95230.63;;;-2.20
76895;BMP280;65855;42.030;13.078;2024-01-30T06:02:22;95222.38;;;-2.05
76895;BMP280;65855;42.030;13.078;2024-01-30T06:04:47;95216.56;;;-1.90
76895;BMP280;65855;42.030;13.078;2024-01-30T06:07:12;95222.56;;;-2.14
76895;BMP280;65855;42.030;13.078;2024-01-30T06:09:38;95225.84;;;-2.59
76895;BMP280;65855;42.030;13.078;2024-01-30T06:12:05;95232.69;;;-2.85
76895;BMP280;65855;42.030;13.078;2024-01-30T06:14:30;95225.63;;;-3.03
76895;BMP280;65855;42.030;13.078;2024-01-30T06:16:56;95233.03;;;-3.11
76895;BMP280;65855;42.030;13.078;2024-01-30T06:19:21;95233.94;;;-2.96
76895;BMP280;65855;42.030;13.078;2024-01-30T06:21:47;95229.16;;;-2.98
76895;BMP280;65855;42.030;13.078;2024-01-30T06:24:12;95231.16;;;-2.93
76895;BMP280;65855;42.030;13.078;2024-01-30T06:26:38;95230.53;;;-2.88
76895;BMP280;65855;42.030;13.078;2024-01-30T06:29:03;95230.13;;;-3.22
76895;BMP280;65855;42.030;13.078;2024-01-30T06:31:28;95232.91;;;-3.64
76895;BMP280;65855;42.030;13.078;2024-01-30T06:33:54;95235.53;;;-3.66
76895;BMP280;65855;42.030;13.078;2024-01-30T06:36:19;95239.38;;;-3.32
76895;BMP280;65855;42.030;13.078;2024-01-30T06:38:45;95239.50;;;-3.10
76895;BMP280;65855;42.030;13.078;2024-01-30T06:41:10;95243.53;;;-3.33
76895;BMP280;65855;42.030;13.078;2024-01-30T06:43:36;95243.84;;;-3.36
76895;BMP280;65855;42.030;13.078;2024-01-30T06:46:01;95237.06;;;-3.02
76895;BMP280;65855;42.030;13.078;2024-01-30T06:48:27;95241.19;;;-3.03
76895;BMP280;65855;42.030;13.078;2024-01-30T06:50:57;95240.72;;;-2.98
76895;BMP280;65855;42.030;13.078;2024-01-30T06:53:23;95238.13;;;-3.05
76895;BMP280;65855;42.030;13.078;2024-01-30T06:55:48;95236.97;;;-2.71
76895;BMP280;65855;42.030;13.078;2024-01-30T06:58:14;95234.41;;;-2.93
76895;BMP280;65855;42.030;13.078;2024-01-30T07:00:39;95238.53;;;-2.70
76895;BMP280;65855;42.030;13.078;2024-01-30T07:03:04;95242.97;;;-2.20
76895;BMP280;65855;42.030;13.078;2024-01-30T07:05:30;95249.59;;;-2.50
76895;BMP280;65855;42.030;13.078;2024-01-30T07:07:55;95254.72;;;-2.75
76895;BMP280;65855;42.030;13.078;2024-01-30T07:10:21;95256.03;;;-2.41
76895;BMP280;65855;42.030;13.078;2024-01-30T07:12:46;95260.22;;;-1.52
76895;BMP280;65855;42.030;13.078;2024-01-30T07:15:12;95257.00;;;-0.66
76895;BMP280;65855;42.030;13.078;2024-01-30T07:17:40;95256.41;;;-0.54
76895;BMP280;65855;42.030;13.078;2024-01-30T07:20:06;95262.72;;;-0.66
76895;BMP280;65855;42.030;13.078;2024-01-30T07:22:33;95262.03;;;-0.46
76895;BMP280;65855;42.030;13.078;2024-01-30T07:24:58;95270.63;;;0.15
76895;BMP280;65855;42.030;13.078;2024-01-30T07:27:24;95267.25;;;-0.41
76895;BMP280;65855;42.030;13.078;2024-01-30T07:29:49;95265.22;;;-0.23
76895;BMP280;65855;42.030;13.078;2024-01-30T07:32:15;95270.34;;;-0.10
76895;BMP280;65855;42.030;13.078;2024-01-30T07:34:40;95265.69;;;0.15
76895;BMP280;65855;42.030;13.078;2024-01-30T07:37:05;95264.88;;;0.49
76895;BMP280;65855;42.030;13.078;2024-01-30T07:39:33;95264.19;;;0.55
76895;BMP280;65855;42.030;13.078;2024-01-30T07:41:59;95266.78;;;0.68
76895;BMP280;65855;42.030;13.078;2024-01-30T07:44:24;95253.38;;;0.83
76895;BMP280;65855;42.030;13.078;2024-01-30T07:46:50;95259.31;;;1.09
76895;BMP280;65855;42.030;13.078;2024-01-30T07:49:15;95259.16;;;1.71
76895;BMP280;65855;42.030;13.078;2024-01-30T07:51:41;95257.97;;;2.00
76895;BMP280;65855;42.030;13.078;2024-01-30T07:54:06;95259.31;;;2.09
76895;BMP280;65855;42.030;13.078;2024-01-30T07:56:32;95258.81;;;2.20
76895;BMP280;65855;42.030;13.078;2024-01-30T07:58:57;95260.63;;;2.51
76895;BMP280;65855;42.030;13.078;2024-01-30T08:01:22;95258.97;;;3.03
76895;BMP280;65855;42.030;13.078;2024-01-30T08:03:48;95265.72;;;3.96
76895;BMP280;65855;42.030;13.078;2024-01-30T08:06:13;95257.28;;;4.77
76895;BMP280;65855;42.030;13.078;2024-01-30T08:08:39;95261.28;;;4.48
76895;BMP280;65855;42.030;13.078;2024-01-30T08:11:04;95258.53;;;4.62
76895;BMP280;65855;42.030;13.078;2024-01-30T08:13:30;95256.03;;;4.92
76895;BMP280;65855;42.030;13.078;2024-01-30T08:15:56;95258.94;;;5.13
76895;BMP280;65855;42.030;13.078;2024-01-30T08:18:21;95266.88;;;5.52
76895;BMP280;65855;42.030;13.078;2024-01-30T08:20:46;95263.16;;;6.49
76895;BMP280;65855;42.030;13.078;2024-01-30T08:23:12;95260.00;;;8.13
76895;BMP280;65855;42.030;13.078;2024-01-30T08:25:37;95257.41;;;9.50
76895;BMP280;65855;42.030;13.078;2024-01-30T08:28:03;95253.25;;;9.92
76895;BMP280;65855;42.030;13.078;2024-01-30T08:31:24;95249.13;;;11.53
76895;BMP280;65855;42.030;13.078;2024-01-30T08:33:50;95247.47;;;12.19
76895;BMP280;65855;42.030;13.078;2024-01-30T08:36:16;95249.13;;;12.49
76895;BMP280;65855;42.030;13.078;2024-01-30T08:38:42;95242.19;;;13.30
76895;BMP280;65855;42.030;13.078;2024-01-30T08:41:07;95241.94;;;13.46
76895;BMP280;65855;42.030;13.078;2024-01-30T08:43:33;95243.19;;;13.63
76895;BMP280;65855;42.030;13.078;2024-01-30T08:49:04;95251.03;;;8.16
76895;BMP280;65855;42.030;13.078;2024-01-30T08:51:30;95251.78;;;8.83
76895;BMP280;65855;42.030;13.078;2024-01-30T08:53:56;95240.44;;;10.83
76895;BMP280;65855;42.030;13.078;2024-01-30T08:56:21;95239.84;;;11.33
76895;BMP280;65855;42.030;13.078;2024-01-30T08:58:47;95235.38;;;13.45
76895;BMP280;65855;42.030;13.078;2024-01-30T09:01:12;95239.50;;;14.33
76895;BMP280;65855;42.030;13.078;2024-01-30T09:03:38;95236.84;;;14.57
76895;BMP280;65855;42.030;13.078;2024-01-30T09:06:09;95235.69;;;15.58
76895;BMP280;65855;42.030;13.078;2024-01-30T09:08:34;95239.50;;;15.56
76895;BMP280;65855;42.030;13.078;2024-01-30T09:11:00;95234.41;;;15.88
76895;BMP280;65855;42.030;13.078;2024-01-30T09:13:25;95236.06;;;16.67
76895;BMP280;65855;42.030;13.078;2024-01-30T09:15:50;95238.09;;;16.65
76895;BMP280;65855;42.030;13.078;2024-01-30T09:18:16;95235.44;;;17.29
76895;BMP280;65855;42.030;13.078;2024-01-30T09:20:41;95236.72;;;17.76
76895;BMP280;65855;42.030;13.078;2024-01-30T09:23:07;95237.88;;;17.83
76895;BMP280;65855;42.030;13.078;2024-01-30T09:25:33;95240.00;;;17.95
76895;BMP280;65855;42.030;13.078;2024-01-30T09:27:59;95242.28;;;18.36
76895;BMP280;65855;42.030;13.078;2024-01-30T09:30:25;95243.22;;;18.53
76895;BMP280;65855;42.030;13.078;2024-01-30T09:32:50;95239.06;;;19.91
76895;BMP280;65855;42.030;13.078;2024-01-30T09:35:15;95243.19;;;18.93
76895;BMP280;65855;42.030;13.078;2024-01-30T09:37:41;95238.81;;;18.93
76895;BMP280;65855;42.030;13.078;2024-01-30T09:40:07;95247.97;;;18.33
76895;BMP280;65855;42.030;13.078;2024-01-30T09:44:58;95235.97;;;19.29
76895;BMP280;65855;42.030;13.078;2024-01-30T09:47:24;95238.84;;;19.15
76895;BMP280;65855;42.030;13.078;2024-01-30T09:49:50;95236.63;;;19.65
76895;BMP280;65855;42.030;13.078;2024-01-30T09:52:16;95241.31;;;18.72
76895;BMP280;65855;42.030;13.078;2024-01-30T09:54:42;95245.66;;;18.58
76895;BMP280;65855;42.030;13.078;2024-01-30T09:57:08;95237.72;;;19.42
76895;BMP280;65855;42.030;13.078;2024-01-30T09:59:34;95240.25;;;20.15
76895;BMP280;65855;42.030;13.078;2024-01-30T10:02:00;95239.31;;;20.49
76895;BMP280;65855;42.030;13.078;2024-01-30T10:04:25;95237.31;;;19.49
76895;BMP280;65855;42.030;13.078;2024-01-30T10:06:51;95243.28;;;19.66
76895;BMP280;65855;42.030;13.078;2024-01-30T10:09:16;95233.88;;;19.31
76895;BMP280;65855;42.030;13.078;2024-01-30T10:11:42;95231.09;;;20.77
76895;BMP280;65855;42.030;13.078;2024-01-30T10:14:08;95228.25;;;19.94
76895;BMP280;65855;42.030;13.078;2024-01-30T10:16:34;95229.88;;;20.75
76895;BMP280;65855;42.030;13.078;2024-01-30T10:19:00;95227.94;;;21.64
76895;BMP280;65855;42.030;13.078;2024-01-30T10:21:25;95220.13;;;21.97
76895;BMP280;65855;42.030;13.078;2024-01-30T10:23:51;95223.69;;;20.76
76895;BMP280;65855;42.030;13.078;2024-01-30T10:26:16;95216.34;;;20.99
76895;BMP280;65855;42.030;13.078;2024-01-30T10:28:45;95221.75;;;20.73
76895;BMP280;65855;42.030;13.078;2024-01-30T10:31:10;95219.88;;;20.57
76895;BMP280;65855;42.030;13.078;2024-01-30T10:33:35;95222.00;;;19.57
76895;BMP280;65855;42.030;13.078;2024-01-30T10:36:03;95226.59;;;21.08
76895;BMP280;65855;42.030;13.078;2024-01-30T10:38:30;95219.81;;;21.03
76895;BMP280;65855;42.030;13.078;2024-01-30T10:41:00;95212.66;;;21.75
76895;BMP280;65855;42.030;13.078;2024-01-30T10:43:35;95211.34;;;22.15
76895;BMP280;65855;42.030;13.078;2024-01-30T10:46:18;95210.28;;;21.54
76895;BMP280;65855;42.030;13.078;2024-01-30T10:48:49;95207.00;;;21.98
76895;BMP280;65855;42.030;13.078;2024-01-30T10:51:15;95210.28;;;22.16
76895;BMP280;65855;42.030;13.078;2024-01-30T10:53:44;95208.22;;;22.01
76895;BMP280;65855;42.030;13.078;2024-01-30T10:56:11;95203.97;;;23.94
76895;BMP280;65855;42.030;13.078;2024-01-30T10:58:38;95195.69;;;23.05
76895;BMP280;65855;42.030;13.078;2024-01-30T11:01:04;95193.69;;;22.62
76895;BMP280;65855;42.030;13.078;2024-01-30T11:03:31;95195.69;;;22.85
76895;BMP280;65855;42.030;13.078;2024-01-30T11:06:00;95185.22;;;23.62
76895;BMP280;65855;42.030;13.078;2024-01-30T11:08:25;95190.88;;;21.81
76895;BMP280;65855;42.030;13.078;2024-01-30T11:10:56;95192.81;;;22.29
76895;BMP280;65855;42.030;13.078;2024-01-30T11:13:29;95189.00;;;22.07
76895;BMP280;65855;42.030;13.078;2024-01-30T11:15:55;95187.84;;;22.81
76895;BMP280;65855;42.030;13.078;2024-01-30T11:18:24;95180.75;;;22.78
76895;BMP280;65855;42.030;13.078;2024-01-30T11:20:50;95182.66;;;23.73
76895;BMP280;65855;42.030;13.078;2024-01-30T11:23:16;95179.47;;;24.00
76895;BMP280;65855;42.030;13.078;2024-01-30T11:25:43;95171.72;;;23.88
76895;BMP280;65855;42.030;13.078;2024-01-30T11:28:14;95169.69;;;23.82
76895;BMP280;65855;42.030;13.078;2024-01-30T11:30:44;95168.72;;;23.98
76895;BMP280;65855;42.030;13.078;2024-01-30T11:33:11;95170.16;;;24.31
76895;BMP280;65855;42.030;13.078;2024-01-30T11:35:38;95168.34;;;24.19
76895;BMP280;65855;42.030;13.078;2024-01-30T11:38:05;95158.19;;;20.45
76895;BMP280;65855;42.030;13.078;2024-01-30T11:40:32;95163.91;;;22.61
76895;BMP280;65855;42.030;13.078;2024-01-30T11:42:59;95157.78;;;23.45
76895;BMP280;65855;42.030;13.078;2024-01-30T11:45:26;95166.09;;;21.85
76895;BMP280;65855;42.030;13.078;2024-01-30T11:47:53;95169.31;;;23.08
76895;BMP280;65855;42.030;13.078;2024-01-30T11:50:18;95158.25;;;19.47
76895;BMP280;65855;42.030;13.078;2024-01-30T11:52:44;95152.53;;;22.90
76895;BMP280;65855;42.030;13.078;2024-01-30T11:55:10;95147.06;;;24.10
76895;BMP280;65855;42.030;13.078;2024-01-30T11:57:35;95148.72;;;24.65
76895;BMP280;65855;42.030;13.078;2024-01-30T12:00:03;95140.53;;;25.14
76895;BMP280;65855;42.030;13.078;2024-01-30T12:02:35;95141.19;;;25.11
76895;BMP280;65855;42.030;13.078;2024-01-30T12:05:06;95135.25;;;25.95
76895;BMP280;65855;42.030;13.078;2024-01-30T12:07:35;95133.59;;;25.87
76895;BMP280;65855;42.030;13.078;2024-01-30T12:10:02;95136.09;;;25.99
76895;BMP280;65855;42.030;13.078;2024-01-30T12:12:28;95133.69;;;26.05
76895;BMP280;65855;42.030;13.078;2024-01-30T12:14:56;95133.31;;;26.37
76895;BMP280;65855;42.030;13.078;2024-01-30T12:17:31;95133.66;;;26.54
76895;BMP280;65855;42.030;13.078;2024-01-30T12:20:14;95127.34;;;26.86
76895;BMP280;65855;42.030;13.078;2024-01-30T12:22:41;95123.31;;;26.54
76895;BMP280;65855;42.030;13.078;2024-01-30T12:25:08;95122.75;;;26.98
76895;BMP280;65855;42.030;13.078;2024-01-30T12:27:35;95118.28;;;26.95
76895;BMP280;65855;42.030;13.078;2024-01-30T12:30:00;95108.63;;;27.33
76895;BMP280;65855;42.030;13.078;2024-01-30T12:32:26;95115.69;;;27.54
76895;BMP280;65855;42.030;13.078;2024-01-30T12:34:55;95115.50;;;27.85
76895;BMP280;65855;42.030;13.078;2024-01-30T12:37:21;95111.03;;;28.07
76895;BMP280;65855;42.030;13.078;2024-01-30T12:39:48;95112.66;;;28.41
76895;BMP280;65855;42.030;13.078;2024-01-30T12:42:19;95108.09;;;28.34
76895;BMP280;65855;42.030;13.078;2024-01-30T12:44:45;95098.31;;;28.79
76895;BMP280;65855;42.030;13.078;2024-01-30T12:47:11;95093.69;;;29.27
76895;BMP280;65855;42.030;13.078;2024-01-30T12:49:36;95102.34;;;29.05
76895;BMP280;65855;42.030;13.078;2024-01-30T12:52:02;95096.06;;;29.06
76895;BMP280;65855;42.030;13.078;2024-01-30T12:54:28;95096.69;;;29.68
76895;BMP280;65855;42.030;13.078;2024-01-30T12:56:53;95083.03;;;29.39
76895;BMP280;65855;42.030;13.078;2024-01-30T12:59:19;95081.22;;;30.31
76895;BMP280;65855;42.030;13.078;2024-01-30T13:01:44;95085.81;;;29.98
76895;BMP280;65855;42.030;13.078;2024-01-30T13:04:10;95083.47;;;30.40
76895;BMP280;65855;42.030;13.078;2024-01-30T13:06:36;95077.91;;;29.85
76895;BMP280;65855;42.030;13.078;2024-01-30T13:09:01;95075.88;;;30.14
76895;BMP280;65855;42.030;13.078;2024-01-30T13:11:27;95082.78;;;30.42
76895;BMP280;65855;42.030;13.078;2024-01-30T13:13:53;95073.34;;;30.98
76895;BMP280;65855;42.030;13.078;2024-01-30T13:16:18;95075.16;;;30.84
76895;BMP280;65855;42.030;13.078;2024-01-30T13:18:44;95068.06;;;30.77
76895;BMP280;65855;42.030;13.078;2024-01-30T13:21:09;95076.16;;;29.56
76895;BMP280;65855;42.030;13.078;2024-01-30T13:23:35;95079.56;;;30.06
76895;BMP280;65855;42.030;13.078;2024-01-30T13:26:00;95077.28;;;27.60
76895;BMP280;65855;42.030;13.078;2024-01-30T13:28:26;95076.09;;;28.81
76895;BMP280;65855;42.030;13.078;2024-01-30T13:30:51;95074.31;;;29.21
76895;BMP280;65855;42.030;13.078;2024-01-30T13:33:17;95082.22;;;26.68
76895;BMP280;65855;42.030;13.078;2024-01-30T13:35:43;95083.44;;;27.74
76895;BMP280;65855;42.030;13.078;2024-01-30T13:38:08;95081.47;;;26.34
76895;BMP280;65855;42.030;13.078;2024-01-30T13:40:34;95087.41;;;26.87
76895;BMP280;65855;42.030;13.078;2024-01-30T13:42:59;95084.19;;;29.84
76895;BMP280;65855;42.030;13.078;2024-01-30T13:45:25;95089.53;;;29.97
76895;BMP280;65855;42.030;13.078;2024-01-30T13:47:50;95092.72;;;30.27
76895;BMP280;65855;42.030;13.078;2024-01-30T13:50:16;95092.63;;;28.96
76895;BMP280;65855;42.030;13.078;2024-01-30T13:52:42;95092.56;;;29.64
76895;BMP280;65855;42.030;13.078;2024-01-30T13:55:09;95092.97;;;28.94
76895;BMP280;65855;42.030;13.078;2024-01-30T13:57:35;95091.59;;;29.78